Aérodrome :
LOGIN :

S'inscrire | Disclaimer

   EN    FR    IT 

 










Légende :    VFR   VFR Marginal   IFR   IFR Intensif   IFR Très Intensif
Visi : 
Plafond : 
>= 8 km
>= 3000ft
5 à 8 km
1000 à 3000 ft
1500m à 5 km
500 à 1000 ft
800 à 1500m
200 à 500 ft
< 800m
< 200 ft
Symboles :   Orages  Brouillard  Fortes neiges  Fortes précipitations  Vent > 20 kt
SIGMETs :   Divers  Orages  Givrage  Turbulence  Onde Orograph.  Cendres Volcan.






- Altitude de l'aérodrome : 1325 ft
- Code IATA : EBU


LFMH - St-Etienne Boutheon

DERNIER METAR :
  • 140400Z AUTO VRB02KT 8000 BKN041 17/16 Q1017 TEMPO 4000 BR BKN010

METARs EXPIRÉS :
  • 140330Z AUTO 07002KT 7000 NSC 17/16 Q1017 TEMPO 4000 BR BKN010
  • 140300Z AUTO VRB02KT 6000 NSC 17/16 Q1017
  • 140230Z AUTO 00000KT CAVOK 17/17 Q1017
  • 140200Z AUTO VRB03KT 9999 BKN054 BKN068 18/17 Q1017
  • 140130Z AUTO VRB01KT 9999 SCT052 OVC066 18/17 Q1017

TAF TAF LFMH
Valide du 14 à 03h jusqu'au 15 à 03h UTC


140200Z 1403/1503 16004KT 9999 BKN035
PROB30
TEMPO 1404/1409 4000 BR BKN010
BECMG 1409/1411 36006KT
BECMG 1412/1414 SCT050
BECMG 1423/1501 VRB03KT CAVOK
ATIS : +33 4 77 36 17 51



MET'MAP, la Météo Aéronautique d'un coup d'oeil ! - Copyright ORBIFLY Décembre 2007 - Disclaimer

ORBIFLY MET'MAP TEAM :

Programmation & Développement : Alexandra Zaïnal
Sur une idée originale de : Baudouin d'Aumeries
Assistance à la programmation : Marc-Olivier Méhu
Soutien technique & logistique : Manuel Goepfert

Contact : metmap@orbifly.com




SOURCES & CREDITS :

   NOAA